createdAt,value
2023-04-28T00:01:28.244Z,7.54
2023-04-28T00:03:55.641Z,7.53
2023-04-28T00:06:22.450Z,7.53
2023-04-28T00:08:48.982Z,7.50
2023-04-28T00:11:15.484Z,7.49
2023-04-28T00:13:42.087Z,7.48
2023-04-28T00:16:08.614Z,7.44
2023-04-28T00:18:35.285Z,7.43
2023-04-28T00:21:01.976Z,7.41
2023-04-28T00:23:28.585Z,7.38
2023-04-28T00:25:57.495Z,7.38
2023-04-28T00:30:53.523Z,7.40
2023-04-28T00:33:20.145Z,7.42
2023-04-28T00:35:46.669Z,7.44
2023-04-28T00:38:13.210Z,7.45
2023-04-28T00:40:39.873Z,7.47
2023-04-28T00:43:06.980Z,7.48
2023-04-28T00:45:33.577Z,7.51
2023-04-28T00:48:00.783Z,7.54
2023-04-28T00:50:28.336Z,7.57
2023-04-28T00:52:54.937Z,7.60
2023-04-28T00:55:22.177Z,7.62
2023-04-28T00:57:48.798Z,7.64
2023-04-28T01:00:16.348Z,7.66
2023-04-28T01:02:43.100Z,7.67
2023-04-28T01:05:10.328Z,7.70
2023-04-28T01:07:37.700Z,7.72
2023-04-28T01:10:06.889Z,7.75
2023-04-28T01:12:34.317Z,7.76
2023-04-28T01:15:01.542Z,7.79
2023-04-28T01:17:29.856Z,7.82
2023-04-28T01:19:56.506Z,7.82
2023-04-28T01:22:23.001Z,7.84
2023-04-28T01:24:49.532Z,7.84
2023-04-28T01:27:16.605Z,7.85
2023-04-28T01:29:43.994Z,7.84
2023-04-28T01:32:10.506Z,7.83
2023-04-28T01:34:37.102Z,7.80
2023-04-28T01:37:05.964Z,7.79
2023-04-28T01:39:32.756Z,7.78
2023-04-28T01:41:59.212Z,7.76
2023-04-28T01:44:26.166Z,7.74
2023-04-28T01:46:52.667Z,7.71
2023-04-28T01:49:21.488Z,7.70
2023-04-28T01:51:48.165Z,7.69
2023-04-28T01:54:14.777Z,7.68
2023-04-28T01:56:42.116Z,7.68
2023-04-28T01:59:09.394Z,7.68
2023-04-28T02:01:36.511Z,7.68
2023-04-28T02:04:03.199Z,7.69
2023-04-28T02:06:33.046Z,7.70
2023-04-28T02:08:59.653Z,7.70
2023-04-28T02:11:26.139Z,7.70
2023-04-28T02:13:56.055Z,7.72
2023-04-28T02:16:22.591Z,7.73
2023-04-28T02:18:50.240Z,7.74
2023-04-28T02:21:16.828Z,7.77
2023-04-28T02:23:44.936Z,7.79
2023-04-28T02:26:11.562Z,7.80
2023-04-28T02:28:38.111Z,7.83
2023-04-28T02:31:10.279Z,7.84
2023-04-28T02:33:37.695Z,7.85
2023-04-28T02:36:05.547Z,7.86
2023-04-28T02:38:32.229Z,7.88
2023-04-28T02:41:04.807Z,7.89
2023-04-28T02:43:32.202Z,7.89
2023-04-28T02:45:58.778Z,7.87
2023-04-28T02:48:25.906Z,7.85
2023-04-28T02:50:53.331Z,7.83
2023-04-28T02:53:20.906Z,7.80
2023-04-28T02:55:48.259Z,7.79
2023-04-28T02:58:15.104Z,7.77
2023-04-28T03:00:41.671Z,7.76
2023-04-28T03:03:08.305Z,7.75
2023-04-28T03:05:35.041Z,7.74
2023-04-28T03:08:01.685Z,7.72
2023-04-28T03:10:28.446Z,7.70
2023-04-28T03:12:55.082Z,7.69
2023-04-28T03:15:21.714Z,7.67
2023-04-28T03:17:48.365Z,7.64
2023-04-28T03:20:15.512Z,7.61
2023-04-28T03:22:42.282Z,7.59
2023-04-28T03:25:09.136Z,7.57
2023-04-28T03:27:44.569Z,7.55
2023-04-28T03:30:11.706Z,7.55
2023-04-28T03:32:38.256Z,7.55
2023-04-28T03:35:05.128Z,7.56
2023-04-28T03:37:31.637Z,7.58
2023-04-28T03:39:58.835Z,7.60
2023-04-28T03:42:25.547Z,7.61
2023-04-28T03:45:09.215Z,7.63
2023-04-28T03:47:36.239Z,7.63
2023-04-28T03:50:05.548Z,7.65
2023-04-28T03:52:32.428Z,7.66
2023-04-28T03:54:59.150Z,7.66
2023-04-28T03:57:25.837Z,7.65
2023-04-28T03:59:52.417Z,7.63
2023-04-28T04:02:19.067Z,7.60
2023-04-28T04:04:45.693Z,7.55
2023-04-28T04:07:13.125Z,7.55
2023-04-28T04:09:40.261Z,7.54
2023-04-28T04:12:07.722Z,7.56
2023-04-28T04:14:34.383Z,7.59
2023-04-28T04:17:01.298Z,7.61
2023-04-28T04:19:28.089Z,7.60
2023-04-28T04:21:55.440Z,7.59
2023-04-28T04:24:22.498Z,7.59
2023-04-28T04:26:49.328Z,7.60
2023-04-28T04:29:28.819Z,7.61
2023-04-28T04:31:55.764Z,7.63
2023-04-28T04:34:22.272Z,7.63
2023-04-28T04:36:49.159Z,7.63
2023-04-28T04:39:15.827Z,7.61
2023-04-28T04:41:42.405Z,7.62
2023-04-28T04:44:32.067Z,7.59
2023-04-28T04:46:59.814Z,7.57
2023-04-28T04:49:26.718Z,7.57
2023-04-28T04:51:53.342Z,7.57
2023-04-28T04:54:19.867Z,7.58
2023-04-28T04:56:47.038Z,7.61
2023-04-28T04:59:18.523Z,7.64
2023-04-28T05:01:52.617Z,7.70
2023-04-28T05:04:19.512Z,7.76
2023-04-28T05:06:47.474Z,7.86
2023-04-28T05:09:13.954Z,7.98
2023-04-28T05:11:40.984Z,8.10
2023-04-28T05:14:07.451Z,8.20
2023-04-28T05:16:34.176Z,8.31
2023-04-28T05:19:21.461Z,8.44
2023-04-28T05:21:48.332Z,8.56
2023-04-28T05:24:15.308Z,8.69
2023-04-28T05:26:42.026Z,8.80
2023-04-28T05:29:10.028Z,8.93
2023-04-28T05:31:36.838Z,9.07
2023-04-28T05:34:03.461Z,9.21
2023-04-28T05:36:30.217Z,9.36
2023-04-28T05:38:56.848Z,9.51
2023-04-28T05:41:23.650Z,9.65
2023-04-28T05:43:51.378Z,9.77
2023-04-28T05:46:30.087Z,9.91
2023-04-28T05:48:59.054Z,10.06
2023-04-28T05:51:27.286Z,10.18
2023-04-28T05:53:53.892Z,10.29
2023-04-28T05:56:21.000Z,10.38
2023-04-28T05:58:49.860Z,10.46
2023-04-28T06:01:16.907Z,10.55
2023-04-28T06:03:43.845Z,10.64
2023-04-28T06:06:11.211Z,10.73
2023-04-28T06:08:41.245Z,10.80
2023-04-28T06:11:07.789Z,10.86
2023-04-28T06:13:34.617Z,10.93
2023-04-28T06:16:03.150Z,11.03
2023-04-28T06:18:32.488Z,11.11
2023-04-28T06:21:00.989Z,11.19
2023-04-28T06:23:27.536Z,11.26
2023-04-28T06:25:54.408Z,11.33
2023-04-28T06:28:21.007Z,11.35
2023-04-28T06:30:47.578Z,11.41
2023-04-28T06:33:14.049Z,11.62
2023-04-28T06:35:40.800Z,12.11
2023-04-28T06:38:07.412Z,12.70
2023-04-28T06:40:33.947Z,13.17
2023-04-28T06:43:02.652Z,13.59
2023-04-28T06:45:37.595Z,13.92
2023-04-28T06:48:05.027Z,14.15
2023-04-28T06:50:31.518Z,14.31
2023-04-28T06:52:58.901Z,14.37
2023-04-28T06:55:26.789Z,14.26
2023-04-28T06:57:53.449Z,14.10
2023-04-28T07:00:20.077Z,13.90
2023-04-28T07:02:46.798Z,13.74
2023-04-28T07:05:16.134Z,13.59
2023-04-28T07:07:43.199Z,13.43
2023-04-28T07:10:11.277Z,13.34
2023-04-28T07:12:37.799Z,13.28
2023-04-28T07:15:04.637Z,13.26
2023-04-28T07:17:31.284Z,13.29
2023-04-28T07:19:57.848Z,13.36
2023-04-28T07:22:24.473Z,13.42
2023-04-28T07:24:51.377Z,13.47
2023-04-28T07:27:17.907Z,13.45
2023-04-28T07:29:44.408Z,13.42
2023-04-28T07:32:11.190Z,13.49
2023-04-28T07:34:37.897Z,13.58
2023-04-28T07:37:04.789Z,13.65
2023-04-28T07:39:33.840Z,13.77
2023-04-28T07:42:03.639Z,13.92
2023-04-28T07:44:31.220Z,14.00
2023-04-28T07:46:59.372Z,14.07
2023-04-28T07:49:27.262Z,14.11
2023-04-28T07:51:55.369Z,14.19
2023-04-28T07:54:22.177Z,14.28
2023-04-28T07:56:48.887Z,14.35
2023-04-28T07:59:15.464Z,14.41
2023-04-28T08:01:43.022Z,14.48
2023-04-28T08:04:10.141Z,14.57
2023-04-28T08:06:36.850Z,14.68
2023-04-28T08:09:05.908Z,14.79
2023-04-28T08:11:33.447Z,14.88
2023-04-28T08:14:02.995Z,14.98
2023-04-28T08:16:31.042Z,15.07
2023-04-28T08:18:59.051Z,15.16
2023-04-28T08:21:26.027Z,15.22
2023-04-28T08:23:52.581Z,15.32
2023-04-28T08:26:19.149Z,15.39
2023-04-28T08:28:45.702Z,15.42
2023-04-28T08:31:12.279Z,15.45
2023-04-28T08:33:39.085Z,15.43
2023-04-28T08:36:06.350Z,15.41
2023-04-28T08:38:34.995Z,15.35
2023-04-28T08:41:04.638Z,15.32
2023-04-28T08:43:36.474Z,15.33
2023-04-28T08:46:08.091Z,15.32
2023-04-28T08:48:42.834Z,15.36
2023-04-28T08:51:11.494Z,15.40
2023-04-28T08:54:11.262Z,15.45
2023-04-28T08:56:27.844Z,15.46
2023-04-28T08:58:54.969Z,15.49
2023-04-28T09:01:21.478Z,15.52
2023-04-28T09:03:49.430Z,15.58
2023-04-28T09:06:16.076Z,15.69
2023-04-28T09:08:42.957Z,15.83
2023-04-28T09:11:11.139Z,16.04
2023-04-28T09:13:37.696Z,16.21
2023-04-28T09:16:04.619Z,16.41
2023-04-28T09:18:34.529Z,16.60
2023-04-28T09:21:10.318Z,16.77
2023-04-28T09:23:49.144Z,16.88
2023-04-28T09:26:16.126Z,17.00
2023-04-28T09:28:42.699Z,17.14
2023-04-28T09:31:23.766Z,17.33
2023-04-28T09:33:57.270Z,17.48
2023-04-28T09:36:30.855Z,17.60
2023-04-28T09:38:59.261Z,17.70
2023-04-28T09:41:45.465Z,17.81
2023-04-28T09:44:17.130Z,17.85
2023-04-28T09:46:48.193Z,17.93
2023-04-28T09:49:15.670Z,17.97
2023-04-28T09:51:42.243Z,18.01
2023-04-28T09:54:08.837Z,18.06
2023-04-28T09:56:41.023Z,18.06
2023-04-28T09:59:08.211Z,18.04
2023-04-28T10:01:40.680Z,17.97
2023-04-28T10:04:09.001Z,17.91
2023-04-28T10:06:38.768Z,17.90
2023-04-28T10:09:06.073Z,17.88
2023-04-28T10:11:33.972Z,17.90
2023-04-28T10:14:00.672Z,17.86
2023-04-28T10:16:32.122Z,17.82
2023-04-28T10:18:59.088Z,17.78
2023-04-28T10:21:28.441Z,17.79
2023-04-28T10:24:33.472Z,17.70
2023-04-28T10:27:05.730Z,17.62
2023-04-28T10:29:33.841Z,17.49
2023-04-28T10:32:19.989Z,17.44
2023-04-28T10:34:47.277Z,17.44
2023-04-28T10:37:15.202Z,17.46
2023-04-28T10:40:20.077Z,17.47
2023-04-28T10:42:54.481Z,17.52
2023-04-28T10:45:56.145Z,17.62
2023-04-28T10:48:46.462Z,17.69
2023-04-28T10:51:15.774Z,17.68
2023-04-28T10:53:45.584Z,17.68
2023-04-28T10:56:22.008Z,17.66
2023-04-28T10:58:50.723Z,17.69
2023-04-28T11:01:20.069Z,17.67
2023-04-28T11:03:48.812Z,17.65
2023-04-28T11:06:31.916Z,17.71
2023-04-28T11:09:00.419Z,17.78
2023-04-28T11:11:30.558Z,17.81
2023-04-28T11:14:19.080Z,17.77
2023-04-28T11:16:59.875Z,17.71
2023-04-28T11:19:33.211Z,17.64
2023-04-28T11:22:01.959Z,17.56
2023-04-28T11:24:29.668Z,17.55
2023-04-28T11:26:57.644Z,17.53
2023-04-28T11:29:33.583Z,17.49
2023-04-28T11:32:00.768Z,17.45
2023-04-28T11:34:27.748Z,17.43
2023-04-28T11:36:55.026Z,17.41
2023-04-28T11:39:29.877Z,17.39
2023-04-28T11:41:58.177Z,17.42
2023-04-28T11:44:29.757Z,17.41
2023-04-28T11:47:01.904Z,17.49
2023-04-28T11:49:31.011Z,17.59
2023-04-28T11:52:04.026Z,17.65
2023-04-28T11:54:30.555Z,17.64
2023-04-28T11:57:01.197Z,17.70
2023-04-28T11:59:29.404Z,17.76
2023-04-28T12:02:02.744Z,17.92
2023-04-28T12:04:39.325Z,18.04
2023-04-28T12:07:07.175Z,18.04
2023-04-28T12:09:35.504Z,18.01
2023-04-28T12:12:06.561Z,18.01
2023-04-28T12:15:06.211Z,17.99
2023-04-28T12:17:37.834Z,17.88
2023-04-28T12:20:12.742Z,17.73
2023-04-28T12:22:47.501Z,17.64
2023-04-28T12:25:17.231Z,17.60
2023-04-28T12:28:04.100Z,17.62
2023-04-28T12:30:33.442Z,17.51
2023-04-28T12:33:00.308Z,17.43
2023-04-28T12:35:30.431Z,17.37
2023-04-28T12:37:58.985Z,17.32
2023-04-28T12:40:26.120Z,17.24
2023-04-28T12:42:53.312Z,17.12
2023-04-28T12:45:19.810Z,17.07
2023-04-28T12:47:47.233Z,17.06
2023-04-28T12:50:13.868Z,17.03
2023-04-28T12:52:40.501Z,16.99
2023-04-28T12:55:08.179Z,16.93
2023-04-28T12:57:39.044Z,16.82
2023-04-28T13:00:07.492Z,16.75
2023-04-28T13:02:34.549Z,16.68
2023-04-28T13:05:01.969Z,16.59
2023-04-28T13:07:28.753Z,16.57
2023-04-28T13:09:55.911Z,16.56
2023-04-28T13:12:23.529Z,16.57
2023-04-28T13:14:50.082Z,16.54
2023-04-28T13:17:16.639Z,16.57
2023-04-28T13:19:43.823Z,16.57
2023-04-28T13:22:10.644Z,16.58
2023-04-28T13:24:37.597Z,16.64
2023-04-28T13:27:04.348Z,16.75
2023-04-28T13:29:31.008Z,16.91
2023-04-28T13:31:57.720Z,17.00
2023-04-28T13:34:24.257Z,17.00
2023-04-28T13:36:54.029Z,17.02
2023-04-28T13:39:22.013Z,17.04
2023-04-28T13:41:49.445Z,17.09
2023-04-28T13:44:16.839Z,17.13
2023-04-28T13:46:43.571Z,17.19
2023-04-28T13:49:10.668Z,17.29
2023-04-28T13:51:37.225Z,17.38
2023-04-28T13:54:04.710Z,17.55
2023-04-28T13:56:32.008Z,17.62
2023-04-28T13:58:58.888Z,17.55
2023-04-28T14:01:25.664Z,17.45
2023-04-28T14:03:52.520Z,17.31
2023-04-28T14:06:19.261Z,17.18
2023-04-28T14:08:45.744Z,17.10
2023-04-28T14:11:12.311Z,17.03
2023-04-28T14:13:39.007Z,16.96
2023-04-28T14:16:05.792Z,16.87
2023-04-28T14:18:33.855Z,16.89
2023-04-28T14:21:02.085Z,16.93
2023-04-28T14:23:28.765Z,17.05
2023-04-28T14:25:56.913Z,17.17
2023-04-28T14:28:23.937Z,17.33
2023-04-28T14:30:50.635Z,17.42
2023-04-28T14:33:17.367Z,17.37
2023-04-28T14:35:43.999Z,17.40
2023-04-28T14:38:10.855Z,17.36
2023-04-28T14:40:37.364Z,17.37
2023-04-28T14:43:03.804Z,17.26
2023-04-28T14:45:31.457Z,17.10
2023-04-28T14:47:58.065Z,16.93
2023-04-28T14:50:24.963Z,16.82
2023-04-28T14:52:51.784Z,16.82
2023-04-28T14:55:18.426Z,16.81
2023-04-28T14:57:44.877Z,16.82
2023-04-28T15:00:12.232Z,16.81
2023-04-28T15:02:39.099Z,16.81
2023-04-28T15:05:06.298Z,16.81
2023-04-28T15:07:33.242Z,16.82
2023-04-28T15:10:00.650Z,16.85
2023-04-28T15:12:30.089Z,16.87
2023-04-28T15:14:56.749Z,16.88
2023-04-28T15:17:23.397Z,16.88
2023-04-28T15:19:50.088Z,16.83
2023-04-28T15:22:16.930Z,16.82
2023-04-28T15:24:43.448Z,16.84
2023-04-28T15:27:10.022Z,16.90
2023-04-28T15:29:36.544Z,16.93
2023-04-28T15:32:03.183Z,16.88
2023-04-28T15:34:29.749Z,16.86
2023-04-28T15:36:56.695Z,16.80
2023-04-28T15:39:25.075Z,16.78
2023-04-28T15:41:55.058Z,16.81
2023-04-28T15:44:21.515Z,16.81
2023-04-28T15:46:47.996Z,16.82
2023-04-28T15:49:14.980Z,16.79
2023-04-28T15:51:42.226Z,16.71
2023-04-28T15:54:09.872Z,16.60
2023-04-28T15:56:36.410Z,16.49
2023-04-28T15:59:04.319Z,16.39
2023-04-28T16:01:30.933Z,16.27
2023-04-28T16:03:57.574Z,16.17
2023-04-28T16:06:25.450Z,16.10
2023-04-28T16:08:51.969Z,16.01
2023-04-28T16:11:20.288Z,15.94
2023-04-28T16:13:46.796Z,15.88
2023-04-28T16:16:13.464Z,15.82
2023-04-28T16:18:40.092Z,15.73
2023-04-28T16:21:07.946Z,15.68
2023-04-28T16:23:34.948Z,15.60
2023-04-28T16:26:01.561Z,15.54
2023-04-28T16:28:28.589Z,15.51
2023-04-28T16:30:55.276Z,15.47
2023-04-28T16:33:21.751Z,15.47
2023-04-28T16:35:55.873Z,15.51
2023-04-28T16:38:22.418Z,15.55
2023-04-28T16:40:49.524Z,15.56
2023-04-28T16:43:15.995Z,15.51
2023-04-28T16:45:42.984Z,15.52
2023-04-28T16:48:10.818Z,15.56
2023-04-28T16:50:39.123Z,15.60
2023-04-28T16:53:08.685Z,15.60
2023-04-28T16:55:38.161Z,15.58
2023-04-28T16:58:04.745Z,15.54
2023-04-28T17:00:32.056Z,15.50
2023-04-28T17:02:58.649Z,15.44
2023-04-28T17:05:25.514Z,15.43
2023-04-28T17:07:52.108Z,15.47
2023-04-28T17:10:18.687Z,15.55
2023-04-28T17:12:45.566Z,15.66
2023-04-28T17:15:17.272Z,15.72
2023-04-28T17:17:49.012Z,15.66
2023-04-28T17:20:18.395Z,15.59
2023-04-28T17:22:44.876Z,15.51
2023-04-28T17:25:12.123Z,15.38
2023-04-28T17:27:38.841Z,15.27
2023-04-28T17:30:09.270Z,15.20
2023-04-28T17:32:37.287Z,15.15
2023-04-28T17:35:05.013Z,15.12
2023-04-28T17:37:33.115Z,15.06
2023-04-28T17:40:00.664Z,15.02
2023-04-28T17:42:33.599Z,14.97
2023-04-28T17:45:00.200Z,14.93
2023-04-28T17:47:26.754Z,14.87
2023-04-28T17:49:54.224Z,14.83
2023-04-28T17:52:20.807Z,14.80
2023-04-28T17:54:47.623Z,14.79
2023-04-28T17:57:14.539Z,14.72
2023-04-28T17:59:42.616Z,14.66
2023-04-28T18:02:10.463Z,14.60
2023-04-28T18:04:37.734Z,14.56
2023-04-28T18:07:04.258Z,14.53
2023-04-28T18:09:31.756Z,14.48
2023-04-28T18:11:58.389Z,14.42
2023-04-28T18:14:24.976Z,14.36
2023-04-28T18:16:51.480Z,14.27
2023-04-28T18:19:17.998Z,14.21
2023-04-28T18:21:44.451Z,14.15
2023-04-28T18:24:10.985Z,14.10
2023-04-28T18:26:37.502Z,14.07
2023-04-28T18:29:04.139Z,14.03
2023-04-28T18:31:31.201Z,14.03
2023-04-28T18:33:57.727Z,14.01
2023-04-28T18:36:24.215Z,14.00
2023-04-28T18:38:50.729Z,13.97
2023-04-28T18:41:18.360Z,13.95
2023-04-28T18:43:44.960Z,13.92
2023-04-28T18:46:11.603Z,13.91
2023-04-28T18:48:38.431Z,13.87
2023-04-28T18:51:05.505Z,13.84
2023-04-28T18:53:32.664Z,13.78
2023-04-28T18:55:59.472Z,13.73
2023-04-28T18:58:26.008Z,13.70
2023-04-28T19:00:52.975Z,13.66
2023-04-28T19:03:20.506Z,13.61
2023-04-28T19:05:48.235Z,13.57
2023-04-28T19:08:14.838Z,13.53
2023-04-28T19:10:41.447Z,13.50
2023-04-28T19:13:08.113Z,13.49
2023-04-28T19:15:35.025Z,13.48
2023-04-28T19:18:05.195Z,13.46
2023-04-28T19:20:31.775Z,13.43
2023-04-28T19:23:01.572Z,13.39
2023-04-28T19:25:30.544Z,13.33
2023-04-28T19:27:57.027Z,13.28
2023-04-28T19:30:23.529Z,13.22
2023-04-28T19:32:50.047Z,13.16
2023-04-28T19:35:16.615Z,13.17
2023-04-28T19:37:43.240Z,13.19
2023-04-28T19:40:10.460Z,13.21
2023-04-28T19:42:36.910Z,13.21
2023-04-28T19:45:04.010Z,13.24
2023-04-28T19:47:35.967Z,13.26
2023-04-28T19:50:02.574Z,13.27
2023-04-28T19:52:29.208Z,13.25
2023-04-28T19:54:55.859Z,13.24
2023-04-28T19:57:22.425Z,13.23
2023-04-28T19:59:49.759Z,13.23
2023-04-28T20:02:17.185Z,13.23
2023-04-28T20:04:44.019Z,13.25
2023-04-28T20:07:11.402Z,13.26
2023-04-28T20:09:38.637Z,13.28
2023-04-28T20:12:06.810Z,13.28
2023-04-28T20:14:33.692Z,13.30
2023-04-28T20:17:02.247Z,13.29
2023-04-28T20:19:28.747Z,13.27
2023-04-28T20:21:55.998Z,13.24
2023-04-28T20:24:22.667Z,13.21
2023-04-28T20:26:50.132Z,13.20
2023-04-28T20:29:16.780Z,13.21
2023-04-28T20:31:43.514Z,13.22
2023-04-28T20:34:10.152Z,13.25
2023-04-28T20:36:39.012Z,13.29
2023-04-28T20:39:11.049Z,13.29
2023-04-28T20:41:38.381Z,13.29
2023-04-28T20:44:05.533Z,13.30
2023-04-28T20:46:33.124Z,13.29
2023-04-28T20:49:00.193Z,13.26
2023-04-28T20:51:28.901Z,13.26
2023-04-28T20:53:56.686Z,13.23
2023-04-28T20:56:23.371Z,13.23
2023-04-28T20:58:49.944Z,13.20
2023-04-28T21:01:16.535Z,13.19
2023-04-28T21:03:43.504Z,13.17
2023-04-28T21:06:10.187Z,13.18
2023-04-28T21:08:36.944Z,13.20
2023-04-28T21:11:03.623Z,13.23
2023-04-28T21:13:30.072Z,13.24
2023-04-28T21:15:56.788Z,13.25
2023-04-28T21:18:23.432Z,13.24
2023-04-28T21:20:51.054Z,13.22
2023-04-28T21:23:17.629Z,13.21
2023-04-28T21:25:44.259Z,13.22
2023-04-28T21:28:10.928Z,13.22
2023-04-28T21:30:37.517Z,13.23
2023-04-28T21:33:04.212Z,13.21
2023-04-28T21:35:30.779Z,13.21
2023-04-28T21:37:57.270Z,13.21
2023-04-28T21:40:23.837Z,13.22
2023-04-28T21:42:50.979Z,13.22
2023-04-28T21:45:17.574Z,13.22
2023-04-28T21:47:44.404Z,13.21
2023-04-28T21:50:11.468Z,13.23
2023-04-28T21:52:39.378Z,13.22
2023-04-28T21:55:06.480Z,13.23
2023-04-28T21:57:33.120Z,13.22
2023-04-28T21:59:59.642Z,13.19
2023-04-28T22:02:26.313Z,13.18
2023-04-28T22:04:53.782Z,13.18
2023-04-28T22:07:20.572Z,13.18
2023-04-28T22:09:47.337Z,13.19
2023-04-28T22:12:14.488Z,13.22
2023-04-28T22:14:41.736Z,13.23
2023-04-28T22:17:08.536Z,13.25
2023-04-28T22:19:35.417Z,13.25
2023-04-28T22:22:02.271Z,13.24
2023-04-28T22:24:28.801Z,13.27
2023-04-28T22:26:55.225Z,13.26
2023-04-28T22:29:22.056Z,13.24
2023-04-28T22:31:48.776Z,13.22
2023-04-28T22:34:16.768Z,13.21
2023-04-28T22:36:45.006Z,13.22
2023-04-28T22:39:11.908Z,13.22
2023-04-28T22:41:38.469Z,13.24
2023-04-28T22:44:05.173Z,13.22
2023-04-28T22:46:31.819Z,13.19
2023-04-28T22:48:58.897Z,13.17
2023-04-28T22:51:26.993Z,13.15
2023-04-28T22:53:54.293Z,13.16
2023-04-28T22:56:21.904Z,13.15
2023-04-28T22:58:48.529Z,13.15
2023-04-28T23:01:15.129Z,13.13
2023-04-28T23:03:41.962Z,13.12
2023-04-28T23:06:08.594Z,13.10
2023-04-28T23:08:35.537Z,13.11
2023-04-28T23:11:06.559Z,13.12
2023-04-28T23:13:33.286Z,13.11
2023-04-28T23:16:00.449Z,13.11
2023-04-28T23:18:31.599Z,13.09
2023-04-28T23:20:58.332Z,13.09
2023-04-28T23:23:24.879Z,13.09
2023-04-28T23:25:52.023Z,13.11
2023-04-28T23:28:18.816Z,13.12
2023-04-28T23:30:45.319Z,13.12
2023-04-28T23:33:11.955Z,13.12
2023-04-28T23:35:38.560Z,13.12
2023-04-28T23:38:05.025Z,13.10
2023-04-28T23:40:31.544Z,13.10
2023-04-28T23:42:58.139Z,13.11
2023-04-28T23:45:24.702Z,13.12
2023-04-28T23:47:51.368Z,13.11
2023-04-28T23:50:18.140Z,13.11
2023-04-28T23:52:44.690Z,13.10
2023-04-28T23:55:12.876Z,13.09
2023-04-28T23:57:39.909Z,13.09
